Toronto, Kansas
Current Conditions -  °F | °C
As of 4:52 PM on Thursday 18 Dec 2014 (Local Time) from KCNU Reporting Station
Overcast Overcast  
Wind Chill: 30°   Ceiling: 700
Heat Index: 34°   Visibility: 7mi
Dew Point: 33°   Wind: 5mph
Humidity: 96%   Direction: 350°N
Pressure: 30.19"   Gusts: NA
Location:  37.8°N, 95.95°W
Report Text: KCNU 182252Z AUTO 35004KT 7SM OVC007 01/01 A3019 RMK AO2 CIG 004V009 SLP231 T00110006
Loading
Personal Weather Stations






























Interactive Weather Map New forecast layout! Learn more

10-Day Weather Forecast

Advertisements
Track Severe Weather on mobile